createdAt,value
2022-11-04T00:01:39.840Z,10.20
2022-11-04T00:04:27.117Z,11.40
2022-11-04T00:07:33.192Z,8.70
2022-11-04T00:10:39.156Z,8.53
2022-11-04T00:13:25.091Z,10.10
2022-11-04T00:16:30.788Z,10.50
2022-11-04T00:19:16.685Z,10.30
2022-11-04T00:22:21.475Z,8.67
2022-11-04T00:25:26.516Z,7.07
2022-11-04T00:28:32.668Z,11.30
2022-11-04T00:31:37.101Z,7.70
2022-11-04T00:34:23.165Z,8.70
2022-11-04T00:37:09.183Z,9.13
2022-11-04T00:39:55.030Z,8.03
2022-11-04T00:42:41.500Z,8.23
2022-11-04T00:45:27.696Z,12.07
2022-11-04T00:48:13.957Z,8.00
2022-11-04T00:51:02.042Z,10.50
2022-11-04T00:53:48.151Z,8.80
2022-11-04T00:56:34.260Z,9.37
2022-11-04T00:59:20.330Z,11.57
2022-11-04T01:02:06.741Z,9.97
2022-11-04T01:04:52.724Z,8.90
2022-11-04T01:07:43.550Z,7.80
2022-11-04T01:10:29.939Z,8.20
2022-11-04T01:13:15.530Z,6.70
2022-11-04T01:16:02.962Z,5.60
2022-11-04T01:18:48.801Z,5.43
2022-11-04T01:21:34.845Z,6.30
2022-11-04T01:24:20.966Z,5.60
2022-11-04T01:27:06.984Z,5.53
2022-11-04T01:29:53.084Z,6.63
2022-11-04T01:32:41.156Z,4.73
2022-11-04T01:35:27.353Z,6.03
2022-11-04T01:38:13.308Z,6.13
2022-11-04T01:40:59.522Z,4.30
2022-11-04T01:43:48.051Z,4.07
2022-11-04T01:46:38.278Z,3.77
2022-11-04T01:49:30.547Z,4.70
2022-11-04T01:52:29.223Z,3.90
2022-11-04T01:55:19.344Z,4.87
2022-11-04T01:58:06.910Z,2.33
2022-11-04T02:00:52.932Z,3.20
2022-11-04T02:03:40.910Z,2.90
2022-11-04T02:06:27.184Z,3.23
2022-11-04T02:09:20.761Z,3.33
2022-11-04T02:12:25.706Z,3.57
2022-11-04T02:15:11.815Z,2.90
2022-11-04T02:18:10.999Z,3.60
2022-11-04T02:21:15.729Z,2.50
2022-11-04T02:24:11.125Z,3.33
2022-11-04T02:27:16.063Z,4.70
2022-11-04T02:30:05.218Z,2.50
2022-11-04T02:33:04.702Z,2.30
2022-11-04T02:36:00.663Z,2.63
2022-11-04T02:38:55.698Z,2.70
2022-11-04T02:42:03.388Z,2.40
2022-11-04T02:45:01.889Z,2.63
2022-11-04T02:47:52.712Z,3.80
2022-11-04T02:51:14.090Z,2.70
2022-11-04T02:54:18.106Z,2.30
2022-11-04T02:57:07.141Z,3.27
2022-11-04T02:59:56.873Z,4.50
2022-11-04T03:02:57.221Z,2.50
2022-11-04T03:05:45.314Z,2.80
2022-11-04T03:08:35.757Z,3.40
2022-11-04T03:11:23.213Z,2.60
2022-11-04T03:14:11.381Z,3.20
2022-11-04T03:16:59.268Z,2.23
2022-11-04T03:19:50.951Z,2.77
2022-11-04T03:22:37.392Z,2.47
2022-11-04T03:25:27.620Z,2.40
2022-11-04T03:28:25.968Z,2.37
2022-11-04T03:31:18.134Z,3.80
2022-11-04T03:34:05.221Z,2.17
2022-11-04T03:36:51.265Z,2.10
2022-11-04T03:39:38.388Z,1.90
2022-11-04T03:42:24.413Z,1.97
2022-11-04T03:45:10.968Z,2.13
2022-11-04T03:47:58.284Z,2.40
2022-11-04T03:50:46.748Z,1.97
2022-11-04T03:53:33.405Z,2.47
2022-11-04T03:56:19.279Z,2.30
2022-11-04T03:59:23.998Z,2.27
2022-11-04T04:02:14.555Z,2.90
2022-11-04T04:05:01.376Z,3.47
2022-11-04T04:07:50.435Z,1.90
2022-11-04T04:10:55.056Z,1.80
2022-11-04T04:13:46.924Z,2.17
2022-11-04T04:16:50.519Z,2.37
2022-11-04T04:19:36.529Z,2.23
2022-11-04T04:22:26.173Z,2.27
2022-11-04T04:25:31.873Z,1.83
2022-11-04T04:28:19.112Z,2.87
2022-11-04T04:31:05.184Z,2.03
2022-11-04T04:33:50.694Z,1.90
2022-11-04T04:36:42.000Z,3.20
2022-11-04T04:39:51.015Z,2.53
2022-11-04T04:42:56.022Z,2.53
2022-11-04T04:45:43.045Z,1.83
2022-11-04T04:48:28.742Z,4.90
2022-11-04T04:51:14.513Z,2.10
2022-11-04T04:54:00.325Z,2.10
2022-11-04T04:56:47.913Z,2.20
2022-11-04T04:59:33.524Z,2.13
2022-11-04T05:02:20.142Z,2.37
2022-11-04T05:05:06.337Z,2.37
2022-11-04T05:07:53.524Z,3.13
2022-11-04T05:10:39.416Z,3.33
2022-11-04T05:13:30.317Z,2.57
2022-11-04T05:16:16.005Z,3.40
2022-11-04T05:19:01.557Z,2.70
2022-11-04T05:21:47.192Z,4.83
2022-11-04T05:24:32.779Z,3.20
2022-11-04T05:27:19.860Z,3.30
2022-11-04T05:30:05.956Z,3.97
2022-11-04T05:32:51.641Z,4.10
2022-11-04T05:35:37.549Z,3.13
2022-11-04T05:38:23.359Z,4.30
2022-11-04T05:41:09.690Z,5.00
2022-11-04T05:43:56.019Z,4.07
2022-11-04T05:46:41.519Z,4.83
2022-11-04T05:49:27.402Z,4.10
2022-11-04T05:52:13.036Z,5.13
2022-11-04T05:54:58.812Z,4.90
2022-11-04T05:57:44.766Z,3.50
2022-11-04T06:00:30.669Z,4.87
2022-11-04T06:03:16.680Z,4.73
2022-11-04T06:06:02.425Z,5.87
2022-11-04T06:08:50.190Z,3.97
2022-11-04T06:11:36.200Z,4.07
2022-11-04T06:14:22.006Z,5.30
2022-11-04T06:17:07.980Z,4.20
2022-11-04T06:19:54.126Z,5.97
2022-11-04T06:22:41.935Z,3.73
2022-11-04T06:25:27.692Z,5.40
2022-11-04T06:28:13.580Z,5.07
2022-11-04T06:31:00.021Z,6.33
2022-11-04T06:33:46.041Z,4.80
2022-11-04T06:36:31.691Z,5.70
2022-11-04T06:39:18.948Z,3.70
2022-11-04T06:42:06.447Z,6.23
2022-11-04T06:44:52.569Z,5.53
2022-11-04T06:47:38.129Z,6.13
2022-11-04T06:50:24.142Z,6.77
2022-11-04T06:53:10.427Z,8.97
2022-11-04T06:56:02.782Z,4.07
2022-11-04T06:58:49.253Z,5.60
2022-11-04T07:01:36.579Z,4.67
2022-11-04T07:04:22.364Z,4.97
2022-11-04T07:07:09.202Z,5.57
2022-11-04T07:09:55.333Z,8.60
2022-11-04T07:12:40.918Z,5.93
2022-11-04T07:15:27.694Z,8.00
2022-11-04T07:18:13.580Z,4.03
2022-11-04T07:21:04.530Z,5.10
2022-11-04T07:23:55.928Z,4.37
2022-11-04T07:26:42.482Z,4.00
2022-11-04T07:29:29.459Z,5.33
2022-11-04T07:32:15.384Z,4.97
2022-11-04T07:35:01.235Z,4.20
2022-11-04T07:37:50.291Z,8.50
2022-11-04T07:40:36.342Z,6.53
2022-11-04T07:43:22.206Z,5.63
2022-11-04T07:46:12.313Z,4.40
2022-11-04T07:49:00.895Z,4.73
2022-11-04T07:51:49.334Z,7.73
2022-11-04T07:54:35.019Z,4.87
2022-11-04T07:57:20.733Z,5.77
2022-11-04T08:00:06.842Z,5.33
2022-11-04T08:02:59.575Z,5.60
2022-11-04T08:05:45.584Z,4.30
2022-11-04T08:08:31.819Z,8.73
2022-11-04T08:11:19.420Z,7.63
2022-11-04T08:14:05.356Z,8.23
2022-11-04T08:16:51.685Z,4.93
2022-11-04T08:19:37.543Z,8.17
2022-11-04T08:22:28.801Z,3.40
2022-11-04T08:25:17.390Z,8.67
2022-11-04T08:28:02.993Z,3.97
2022-11-04T08:31:00.807Z,3.20
2022-11-04T08:33:46.737Z,5.63
2022-11-04T08:36:34.408Z,4.73
2022-11-04T08:39:20.338Z,4.67
2022-11-04T08:42:06.805Z,5.80
2022-11-04T08:44:53.039Z,6.73
2022-11-04T08:47:39.559Z,6.97
2022-11-04T08:50:27.768Z,6.57
2022-11-04T08:53:13.750Z,6.23
2022-11-04T08:55:59.840Z,4.23
2022-11-04T08:58:45.917Z,4.43
2022-11-04T09:01:35.969Z,6.90
2022-11-04T09:04:24.357Z,4.03
2022-11-04T09:07:10.200Z,5.27
2022-11-04T09:09:56.449Z,7.90
2022-11-04T09:12:43.461Z,8.00
2022-11-04T09:15:29.191Z,8.90
2022-11-04T09:18:16.590Z,5.87
2022-11-04T09:21:02.567Z,5.97
2022-11-04T09:23:52.353Z,5.50
2022-11-04T09:26:37.916Z,3.93
2022-11-04T09:29:23.908Z,7.10
2022-11-04T09:32:09.736Z,5.70
2022-11-04T09:34:57.367Z,4.83
2022-11-04T09:37:43.354Z,4.77
2022-11-04T09:40:29.654Z,5.47
2022-11-04T09:43:24.187Z,5.23
2022-11-04T09:46:13.209Z,5.13
2022-11-04T09:49:02.178Z,7.63
2022-11-04T09:51:54.778Z,3.50
2022-11-04T09:54:46.805Z,6.13
2022-11-04T09:57:33.253Z,3.33
2022-11-04T10:00:20.171Z,6.60
2022-11-04T10:03:20.311Z,6.80
2022-11-04T10:06:13.338Z,9.13
2022-11-04T10:09:02.111Z,3.40
2022-11-04T10:11:57.685Z,5.10
2022-11-04T10:15:02.346Z,6.77
2022-11-04T10:17:59.625Z,4.73
2022-11-04T10:20:51.187Z,7.50
2022-11-04T10:24:00.655Z,5.10
2022-11-04T10:26:48.277Z,3.63
2022-11-04T10:29:38.519Z,4.33
2022-11-04T10:32:28.624Z,7.27
2022-11-04T10:35:25.446Z,6.57
2022-11-04T10:38:22.443Z,4.17
2022-11-04T10:41:15.379Z,6.97
2022-11-04T10:44:06.888Z,2.80
2022-11-04T10:47:03.521Z,4.47
2022-11-04T10:50:27.855Z,3.40
2022-11-04T10:53:16.859Z,3.13
2022-11-04T10:56:03.076Z,4.00
2022-11-04T10:58:49.209Z,7.27
2022-11-04T11:01:36.086Z,3.77
2022-11-04T11:04:39.519Z,7.13
2022-11-04T11:07:36.727Z,4.97
2022-11-04T11:10:33.014Z,7.63
2022-11-04T11:13:29.445Z,4.20
2022-11-04T11:16:19.049Z,4.23
2022-11-04T11:19:09.370Z,5.03
2022-11-04T11:21:56.416Z,4.83
2022-11-04T11:24:42.218Z,5.60
2022-11-04T11:27:28.255Z,5.30
2022-11-04T11:30:20.819Z,7.97
2022-11-04T11:33:16.494Z,3.90
2022-11-04T11:36:06.733Z,3.30
2022-11-04T11:38:58.376Z,5.97
2022-11-04T11:41:59.562Z,3.70
2022-11-04T11:44:48.600Z,2.73
2022-11-04T11:47:43.523Z,4.17
2022-11-04T11:50:35.514Z,3.60
2022-11-04T11:53:25.233Z,3.70
2022-11-04T11:56:13.997Z,3.93
2022-11-04T12:02:21.083Z,6.40
2022-11-04T12:11:59.432Z,4.00
2022-11-04T12:14:55.299Z,7.40
2022-11-04T12:17:53.985Z,4.67
2022-11-04T12:20:46.773Z,4.30
2022-11-04T12:23:38.564Z,3.63
2022-11-04T12:26:32.115Z,6.60
2022-11-04T12:29:32.519Z,8.07
2022-11-04T12:32:27.868Z,5.83
2022-11-04T12:35:37.622Z,5.30
2022-11-04T12:38:36.431Z,5.23
2022-11-04T12:41:52.749Z,8.03
2022-11-04T12:44:45.794Z,2.90
2022-11-04T12:47:37.456Z,4.53
2022-11-04T12:50:42.452Z,3.20
2022-11-04T12:53:41.444Z,8.33
2022-11-04T12:56:37.351Z,8.43
2022-11-04T12:59:40.347Z,7.43
2022-11-04T13:02:39.500Z,4.27
2022-11-04T13:05:43.025Z,11.27
2022-11-04T13:08:44.777Z,11.50
2022-11-04T13:11:33.525Z,7.47
2022-11-04T13:14:29.086Z,5.60
2022-11-04T13:17:18.815Z,6.47
2022-11-04T13:20:13.974Z,5.90
2022-11-04T13:23:03.441Z,5.83
2022-11-04T13:25:50.391Z,3.27
2022-11-04T13:28:40.372Z,4.70
2022-11-04T13:31:41.173Z,6.50
2022-11-04T13:34:33.543Z,6.80
2022-11-04T13:37:28.836Z,6.57
2022-11-04T13:40:23.230Z,3.77
2022-11-04T13:43:27.502Z,3.20
2022-11-04T13:46:19.364Z,3.73
2022-11-04T13:49:11.196Z,9.17
2022-11-04T13:52:14.009Z,6.93
2022-11-04T13:55:03.695Z,6.60
2022-11-04T13:57:58.636Z,3.83
2022-11-04T14:01:04.497Z,4.97
2022-11-04T14:04:08.914Z,5.90
2022-11-04T14:06:59.814Z,5.67
2022-11-04T14:09:46.891Z,5.07
2022-11-04T14:12:33.663Z,3.77
2022-11-04T14:15:40.520Z,5.43
2022-11-04T14:18:31.010Z,3.50
2022-11-04T14:21:18.114Z,7.17
2022-11-04T14:24:16.349Z,5.83
2022-11-04T14:27:03.022Z,4.50
2022-11-04T14:29:53.835Z,9.00
2022-11-04T14:32:41.665Z,7.97
2022-11-04T14:35:28.762Z,3.20
2022-11-04T14:38:22.689Z,4.70
2022-11-04T14:41:31.342Z,3.80
2022-11-04T14:44:34.765Z,3.10
2022-11-04T14:47:20.398Z,3.00
2022-11-04T14:50:08.656Z,3.37
2022-11-04T14:53:07.020Z,7.27
2022-11-04T14:56:06.484Z,4.17
2022-11-04T14:58:55.442Z,2.60
2022-11-04T15:01:41.954Z,8.23
2022-11-04T15:04:30.753Z,5.73
2022-11-04T15:07:27.605Z,3.87
2022-11-04T15:10:20.942Z,4.53
2022-11-04T15:13:10.035Z,3.63
2022-11-04T15:15:57.391Z,3.33
2022-11-04T15:18:43.779Z,3.37
2022-11-04T15:21:31.114Z,3.40
2022-11-04T15:24:17.623Z,5.00
2022-11-04T15:27:05.048Z,5.57
2022-11-04T15:30:06.958Z,5.63
2022-11-04T15:32:57.590Z,5.13
2022-11-04T15:35:43.442Z,6.50
2022-11-04T15:38:29.789Z,6.63
2022-11-04T15:41:38.411Z,4.20
2022-11-04T15:44:26.371Z,5.70
2022-11-04T15:47:18.069Z,4.53
2022-11-04T15:50:16.441Z,4.10
2022-11-04T15:53:06.847Z,3.70
2022-11-04T15:55:53.630Z,3.93
2022-11-04T15:58:41.657Z,5.57
2022-11-04T16:01:29.059Z,4.43
2022-11-04T16:04:16.099Z,5.47
2022-11-04T16:07:22.903Z,3.30
2022-11-04T16:10:24.938Z,5.23
2022-11-04T16:13:16.946Z,5.60
2022-11-04T16:16:03.090Z,3.80
2022-11-04T16:18:51.830Z,4.33
2022-11-04T16:21:41.055Z,4.23
2022-11-04T16:24:32.240Z,4.20
2022-11-04T16:27:19.327Z,9.00
2022-11-04T16:30:19.244Z,5.87
2022-11-04T16:33:12.971Z,7.63
2022-11-04T16:35:59.019Z,11.33
2022-11-04T16:38:44.736Z,5.90
2022-11-04T16:41:34.385Z,8.53
2022-11-04T16:44:24.748Z,13.03
2022-11-04T16:47:10.782Z,11.70
2022-11-04T16:50:00.453Z,10.70
2022-11-04T16:52:46.432Z,9.80
2022-11-04T16:55:32.611Z,9.33
2022-11-04T16:58:19.306Z,7.70
2022-11-04T17:01:05.780Z,17.47
2022-11-04T17:03:51.963Z,7.53
2022-11-04T17:06:38.116Z,10.53
2022-11-04T17:09:24.001Z,8.07
2022-11-04T17:12:11.189Z,7.40
2022-11-04T17:14:56.738Z,7.27
2022-11-04T17:17:43.155Z,6.03
2022-11-04T17:20:31.509Z,8.33
2022-11-04T17:23:17.273Z,5.50
2022-11-04T17:26:03.182Z,7.23
2022-11-04T17:28:48.848Z,8.33
2022-11-04T17:31:34.662Z,12.27
2022-11-04T17:34:21.176Z,10.30
2022-11-04T17:37:09.431Z,5.60
2022-11-04T17:39:55.933Z,8.20
2022-11-04T17:42:59.922Z,6.33
2022-11-04T17:45:45.886Z,7.10
2022-11-04T17:48:32.148Z,11.03
2022-11-04T17:51:20.183Z,10.53
2022-11-04T17:54:06.543Z,8.23
2022-11-04T17:56:52.209Z,7.77
2022-11-04T17:59:38.071Z,9.83
2022-11-04T18:02:25.142Z,8.13
2022-11-04T18:05:10.892Z,6.70
2022-11-04T18:07:58.407Z,10.07
2022-11-04T18:10:44.428Z,6.80
2022-11-04T18:13:30.337Z,7.33
2022-11-04T18:16:16.779Z,9.60
2022-11-04T18:19:02.538Z,5.87
2022-11-04T18:21:49.532Z,6.17
2022-11-04T18:24:35.931Z,5.73
2022-11-04T18:27:21.864Z,8.70
2022-11-04T18:30:08.175Z,6.70
2022-11-04T18:32:54.120Z,3.80
2022-11-04T18:35:39.830Z,5.97
2022-11-04T18:38:25.641Z,6.67
2022-11-04T18:41:11.395Z,5.20
2022-11-04T18:43:57.242Z,6.10
2022-11-04T18:46:43.492Z,8.17
2022-11-04T18:49:29.372Z,6.40
2022-11-04T18:52:15.306Z,4.97
2022-11-04T18:55:01.246Z,7.20
2022-11-04T18:57:46.990Z,12.03
2022-11-04T19:00:33.390Z,6.40
2022-11-04T19:03:21.316Z,13.30
2022-11-04T19:06:11.223Z,11.93
2022-11-04T19:09:13.330Z,7.27
2022-11-04T19:12:26.550Z,7.30
2022-11-04T19:15:13.491Z,6.97
2022-11-04T19:17:59.138Z,8.60
2022-11-04T19:20:45.536Z,7.87
2022-11-04T19:23:32.030Z,9.27
2022-11-04T19:26:19.810Z,8.40
2022-11-04T19:29:05.910Z,7.00
2022-11-04T19:31:51.456Z,10.47
2022-11-04T19:34:37.838Z,8.20
2022-11-04T19:37:23.283Z,8.97
2022-11-04T19:40:10.798Z,7.67
2022-11-04T19:43:12.814Z,10.80
2022-11-04T19:46:04.679Z,8.77
2022-11-04T19:48:50.641Z,10.53
2022-11-04T19:51:37.017Z,10.07
2022-11-04T19:54:22.970Z,13.00
2022-11-04T19:57:08.557Z,9.97
2022-11-04T19:59:54.377Z,8.00
2022-11-04T20:02:40.199Z,8.60
2022-11-04T20:05:27.802Z,11.63
2022-11-04T20:08:13.964Z,11.80
2022-11-04T20:11:02.980Z,14.07
2022-11-04T20:13:49.549Z,10.53
2022-11-04T20:16:39.456Z,21.30
2022-11-04T20:19:25.351Z,10.73
2022-11-04T20:22:11.049Z,14.50
2022-11-04T20:24:57.089Z,9.13
2022-11-04T20:27:42.665Z,15.77
2022-11-04T20:30:28.280Z,16.53
2022-11-04T20:33:14.538Z,14.33
2022-11-04T20:36:02.614Z,13.47
2022-11-04T20:38:48.120Z,16.07
2022-11-04T20:41:34.088Z,19.40
2022-11-04T20:44:19.711Z,20.10
2022-11-04T20:47:05.228Z,21.87
2022-11-04T20:49:52.264Z,17.67
2022-11-04T20:52:39.979Z,16.10
2022-11-04T20:55:27.758Z,18.43
2022-11-04T20:58:13.530Z,18.87
2022-11-04T21:01:03.582Z,17.40
2022-11-04T21:03:49.659Z,13.33
2022-11-04T21:06:37.520Z,16.27
2022-11-04T21:09:23.428Z,15.63
2022-11-04T21:12:09.095Z,19.37
2022-11-04T21:14:55.127Z,19.30
2022-11-04T21:17:42.989Z,20.53
2022-11-04T21:20:28.721Z,14.67
2022-11-04T21:23:15.126Z,13.40
2022-11-04T21:26:08.833Z,13.07
2022-11-04T21:29:00.950Z,14.53
2022-11-04T21:31:47.507Z,13.40
2022-11-04T21:34:33.129Z,12.90
2022-11-04T21:37:21.147Z,16.17
2022-11-04T21:40:09.184Z,15.60
2022-11-04T21:42:54.915Z,12.23
2022-11-04T21:45:40.765Z,12.90
2022-11-04T21:48:26.320Z,12.33
2022-11-04T21:51:13.742Z,13.60
2022-11-04T21:53:59.968Z,9.17
2022-11-04T21:56:46.562Z,9.43
2022-11-04T21:59:32.291Z,8.17
2022-11-04T22:02:18.117Z,6.77
2022-11-04T22:05:03.968Z,12.03
2022-11-04T22:08:08.333Z,8.93
2022-11-04T22:10:54.425Z,6.73
2022-11-04T22:13:41.413Z,5.87
2022-11-04T22:16:28.138Z,5.80
2022-11-04T22:19:14.307Z,7.50
2022-11-04T22:21:59.823Z,9.43
2022-11-04T22:25:02.907Z,5.37
2022-11-04T22:27:48.946Z,6.30
2022-11-04T22:30:38.199Z,6.37
2022-11-04T22:33:28.810Z,5.10
2022-11-04T22:36:19.393Z,5.20
2022-11-04T22:39:05.590Z,5.13
2022-11-04T22:41:53.728Z,7.40
2022-11-04T22:44:39.592Z,6.50
2022-11-04T22:47:26.799Z,5.30
2022-11-04T22:50:12.314Z,5.57
2022-11-04T22:52:58.191Z,4.40
2022-11-04T22:55:44.085Z,4.60
2022-11-04T22:58:30.491Z,4.83
2022-11-04T23:01:17.502Z,5.03
2022-11-04T23:04:04.072Z,4.50
2022-11-04T23:06:50.151Z,5.47
2022-11-04T23:09:56.194Z,5.90
2022-11-04T23:13:01.127Z,4.60
2022-11-04T23:16:05.912Z,5.13
2022-11-04T23:18:52.236Z,5.70
2022-11-04T23:21:56.938Z,6.20
2022-11-04T23:25:02.479Z,5.60
2022-11-04T23:28:11.946Z,6.03
2022-11-04T23:30:59.500Z,6.53
2022-11-04T23:34:08.915Z,8.40
2022-11-04T23:37:13.212Z,4.50
2022-11-04T23:40:00.026Z,5.20
2022-11-04T23:42:46.003Z,6.07
2022-11-04T23:45:50.539Z,4.43
2022-11-04T23:48:55.451Z,4.93
2022-11-04T23:52:00.287Z,3.90
2022-11-04T23:55:05.064Z,5.13
2022-11-04T23:58:09.646Z,4.10
